createdAt,value
2018-07-04T00:00:53.511Z,18.60
2018-07-04T00:03:33.089Z,18.60
2018-07-04T00:06:12.670Z,18.50
2018-07-04T00:08:52.342Z,18.50
2018-07-04T00:11:31.966Z,18.50
2018-07-04T00:14:11.595Z,18.60
2018-07-04T00:16:51.079Z,18.50
2018-07-04T00:19:30.726Z,18.50
2018-07-04T00:22:10.180Z,18.40
2018-07-04T00:24:52.468Z,18.30
2018-07-04T00:27:32.016Z,18.00
2018-07-04T00:30:11.567Z,17.90
2018-07-04T00:32:51.211Z,18.00
2018-07-04T00:35:30.946Z,18.00
2018-07-04T00:38:10.669Z,17.90
2018-07-04T00:40:50.336Z,17.70
2018-07-04T00:43:29.974Z,17.80
2018-07-04T00:46:09.615Z,17.70
2018-07-04T00:48:49.316Z,17.70
2018-07-04T00:51:28.800Z,17.80
2018-07-04T00:54:08.368Z,17.80
2018-07-04T00:56:47.906Z,17.70
2018-07-04T00:59:27.576Z,17.70
2018-07-04T01:02:07.099Z,17.70
2018-07-04T01:04:46.596Z,17.60
2018-07-04T01:07:26.281Z,17.60
2018-07-04T01:10:05.849Z,17.70
2018-07-04T01:12:45.296Z,17.80
2018-07-04T01:15:25.169Z,17.80
2018-07-04T01:18:04.767Z,17.70
2018-07-04T01:21:19.065Z,17.80
2018-07-04T01:23:58.631Z,18.00
2018-07-04T01:26:38.111Z,17.80
2018-07-04T01:29:17.633Z,17.80
2018-07-04T01:31:57.100Z,17.70
2018-07-04T01:34:36.557Z,17.80
2018-07-04T01:37:16.382Z,17.60
2018-07-04T01:39:56.100Z,17.50
2018-07-04T01:42:35.695Z,17.40
2018-07-04T01:45:15.236Z,17.40
2018-07-04T01:47:54.888Z,17.40
2018-07-04T01:50:34.579Z,17.40
2018-07-04T01:55:47.832Z,17.60
2018-07-04T01:58:27.381Z,17.50
2018-07-04T02:01:07.126Z,17.40
2018-07-04T02:03:46.808Z,17.40
2018-07-04T02:06:26.456Z,17.50
2018-07-04T02:09:06.139Z,17.50
2018-07-04T02:11:45.770Z,17.40
2018-07-04T02:16:59.413Z,17.20
2018-07-04T02:19:38.933Z,17.30
2018-07-04T02:22:18.547Z,17.30
2018-07-04T02:24:58.105Z,17.40
2018-07-04T02:27:37.677Z,17.20
2018-07-04T02:30:17.321Z,17.10
2018-07-04T02:32:57.041Z,17.10
2018-07-04T02:35:36.693Z,17.10
2018-07-04T02:38:16.408Z,17.00
2018-07-04T02:40:56.103Z,17.10
2018-07-04T02:43:35.776Z,16.90
2018-07-04T02:46:20.884Z,16.80
2018-07-04T02:49:00.546Z,16.60
2018-07-04T02:51:40.203Z,16.70
2018-07-04T02:54:19.879Z,16.50
2018-07-04T02:56:59.538Z,16.40
2018-07-04T02:59:39.176Z,16.40
2018-07-04T03:02:18.868Z,16.30
2018-07-04T03:04:58.513Z,16.20
2018-07-04T03:07:38.228Z,16.20
2018-07-04T03:10:17.780Z,16.10
2018-07-04T03:12:57.413Z,16.20
2018-07-04T03:15:37.071Z,16.20
2018-07-04T03:18:16.553Z,16.30
2018-07-04T03:20:56.248Z,16.30
2018-07-04T03:23:35.926Z,16.40
2018-07-04T03:26:15.666Z,16.20
2018-07-04T03:28:55.424Z,16.20
2018-07-04T03:31:35.073Z,16.20
2018-07-04T03:39:21.918Z,16.40
2018-07-04T03:42:01.603Z,16.40
2018-07-04T03:44:41.264Z,16.50
2018-07-04T03:47:20.869Z,16.40
2018-07-04T03:50:00.541Z,16.60
2018-07-04T03:52:40.194Z,16.70
2018-07-04T03:55:19.858Z,16.50
2018-07-04T03:57:59.401Z,16.60
2018-07-04T04:00:38.978Z,16.60
2018-07-04T04:03:18.573Z,16.60
2018-07-04T04:05:58.249Z,16.60
2018-07-04T04:11:11.475Z,16.80
2018-07-04T04:13:50.966Z,16.80
2018-07-04T04:16:30.863Z,16.80
2018-07-04T04:19:10.412Z,16.90
2018-07-04T04:21:50.081Z,17.00
2018-07-04T04:24:29.597Z,16.90
2018-07-04T04:27:09.400Z,16.90
2018-07-04T04:29:49.042Z,16.90
2018-07-04T04:32:28.673Z,16.80
2018-07-04T04:35:08.225Z,16.50
2018-07-04T04:37:47.769Z,16.70
2018-07-04T04:40:27.483Z,16.70
2018-07-04T04:43:07.198Z,16.70
2018-07-04T04:45:48.029Z,16.80
2018-07-04T04:48:27.772Z,16.60
2018-07-04T04:51:07.388Z,16.70
2018-07-04T04:53:47.035Z,16.80
2018-07-04T04:56:26.664Z,16.80
2018-07-04T05:01:39.909Z,16.80
2018-07-04T05:04:19.442Z,16.80
2018-07-04T05:09:32.586Z,16.80
2018-07-04T05:12:12.175Z,16.80
2018-07-04T05:14:52.130Z,16.80
2018-07-04T05:17:31.871Z,16.80
2018-07-04T05:20:11.514Z,16.90
2018-07-04T05:22:51.284Z,16.90
2018-07-04T05:25:30.798Z,16.90
2018-07-04T05:28:10.596Z,16.80
2018-07-04T05:30:50.559Z,16.80
2018-07-04T05:33:30.626Z,16.70
2018-07-04T05:36:10.483Z,16.80
2018-07-04T05:38:50.565Z,16.80
2018-07-04T05:41:30.424Z,16.80
2018-07-04T05:44:10.407Z,16.90
2018-07-04T05:49:24.012Z,17.00
2018-07-04T05:52:03.702Z,16.80
2018-07-04T05:54:43.260Z,16.80
2018-07-04T05:57:23.049Z,16.80
2018-07-04T06:00:02.872Z,16.80
2018-07-04T06:02:42.658Z,16.80
2018-07-04T06:05:22.582Z,16.80
2018-07-04T06:08:02.384Z,16.90
2018-07-04T06:10:42.389Z,17.10
2018-07-04T06:13:22.346Z,17.00
2018-07-04T06:16:02.028Z,17.00
2018-07-04T06:18:42.320Z,17.20
2018-07-04T06:21:22.707Z,17.30
2018-07-04T06:24:02.417Z,17.40
2018-07-04T06:26:42.467Z,17.60
2018-07-04T06:29:22.308Z,17.70
2018-07-04T06:32:02.090Z,17.80
2018-07-04T06:34:41.846Z,17.90
2018-07-04T06:37:21.728Z,18.10
2018-07-04T06:39:49.365Z,18.10
2018-07-04T06:42:16.857Z,18.20
2018-07-04T06:44:45.472Z,18.30
2018-07-04T06:47:13.177Z,18.30
2018-07-04T06:49:40.618Z,18.30
2018-07-04T06:52:08.033Z,18.40
2018-07-04T06:54:35.507Z,18.50
2018-07-04T06:57:03.067Z,18.60
2018-07-04T06:59:30.856Z,18.60
2018-07-04T07:02:13.590Z,18.60
2018-07-04T07:04:54.503Z,18.70
2018-07-04T07:07:34.529Z,18.70
2018-07-04T07:10:14.169Z,18.90
2018-07-04T07:12:53.917Z,19.00
2018-07-04T07:15:33.606Z,19.20
2018-07-04T07:18:14.312Z,19.30
2018-07-04T07:20:54.072Z,19.40
2018-07-04T07:23:34.150Z,19.60
2018-07-04T07:28:47.507Z,19.40
2018-07-04T07:34:01.021Z,19.60
2018-07-04T07:36:40.709Z,19.90
2018-07-04T07:39:20.976Z,19.80
2018-07-04T07:42:00.716Z,19.90
2018-07-04T07:44:40.527Z,19.90
2018-07-04T07:47:20.151Z,20.10
2018-07-04T07:52:58.840Z,20.30
2018-07-04T07:55:38.565Z,20.40
2018-07-04T07:58:18.319Z,20.40
2018-07-04T08:00:58.202Z,20.60
2018-07-04T08:03:38.016Z,20.80
2018-07-04T08:08:51.355Z,20.80
2018-07-04T08:11:31.433Z,21.00
2018-07-04T08:14:11.113Z,21.10
2018-07-04T08:16:50.849Z,21.10
2018-07-04T08:19:30.603Z,21.10
2018-07-04T08:22:10.242Z,21.10
2018-07-04T08:24:49.833Z,21.40
2018-07-04T08:32:36.777Z,21.50
2018-07-04T08:35:16.310Z,21.50
2018-07-04T08:37:56.080Z,21.50
2018-07-04T08:40:35.837Z,21.70
2018-07-04T08:43:15.576Z,21.90
2018-07-04T08:45:55.252Z,21.90
2018-07-04T08:48:34.912Z,22.00
2018-07-04T08:51:14.489Z,22.20
2018-07-04T08:53:56.446Z,22.40
2018-07-04T08:56:36.227Z,22.50
2018-07-04T08:59:15.900Z,22.50
2018-07-04T09:01:56.598Z,22.80
2018-07-04T09:04:36.242Z,23.10
2018-07-04T09:07:15.887Z,23.30
2018-07-04T09:09:55.698Z,23.50
2018-07-04T09:12:35.316Z,24.00
2018-07-04T09:15:14.998Z,24.50
2018-07-04T09:17:54.766Z,24.00
2018-07-04T09:20:34.446Z,24.00
2018-07-04T09:23:13.955Z,23.90
2018-07-04T09:25:53.610Z,24.00
2018-07-04T09:28:33.229Z,24.00
2018-07-04T09:31:13.100Z,24.20
2018-07-04T09:33:52.824Z,24.50
2018-07-04T09:36:32.484Z,24.50
2018-07-04T09:39:12.211Z,24.70
2018-07-04T09:41:51.792Z,24.60
2018-07-04T09:44:31.342Z,24.90
2018-07-04T09:47:10.877Z,24.90
2018-07-04T09:49:50.657Z,25.20
2018-07-04T09:55:04.106Z,25.80
2018-07-04T09:57:43.870Z,26.10
2018-07-04T10:00:29.491Z,26.30
2018-07-04T10:03:10.236Z,26.40
2018-07-04T10:05:49.857Z,26.90
2018-07-04T10:08:29.978Z,27.40
2018-07-04T10:11:10.218Z,27.20
2018-07-04T10:13:49.955Z,27.40
2018-07-04T10:16:29.464Z,27.90
2018-07-04T10:19:09.038Z,28.00
2018-07-04T10:21:48.721Z,26.90
2018-07-04T10:24:28.298Z,26.20
2018-07-04T10:27:07.898Z,26.10
2018-07-04T10:29:47.511Z,26.20
2018-07-04T10:32:27.257Z,26.30
2018-07-04T10:35:07.026Z,26.50
2018-07-04T10:37:46.981Z,26.50
2018-07-04T10:43:00.563Z,27.50
2018-07-04T10:45:40.225Z,27.30
2018-07-04T10:48:19.858Z,27.00
2018-07-04T10:50:59.539Z,26.80
2018-07-04T10:53:39.238Z,26.90
2018-07-04T10:56:18.906Z,26.70
2018-07-04T10:58:58.572Z,27.10
2018-07-04T11:01:38.283Z,27.40
2018-07-04T11:04:18.066Z,28.00
2018-07-04T11:06:57.947Z,28.60
2018-07-04T11:09:37.902Z,28.70
2018-07-04T11:12:17.438Z,28.40
2018-07-04T11:14:57.377Z,28.60
2018-07-04T11:17:40.518Z,28.10
2018-07-04T11:20:20.011Z,28.10
2018-07-04T11:22:59.743Z,28.50
2018-07-04T11:25:39.432Z,28.90
2018-07-04T11:28:19.136Z,29.10
2018-07-04T11:30:59.638Z,29.10
2018-07-04T11:33:39.281Z,28.60
2018-07-04T11:36:18.790Z,28.30
2018-07-04T11:38:58.752Z,28.00
2018-07-04T11:41:38.570Z,28.00
2018-07-04T11:44:18.244Z,28.60
2018-07-04T11:46:45.875Z,29.30
2018-07-04T11:49:13.502Z,29.50
2018-07-04T11:51:40.785Z,29.00
2018-07-04T11:54:08.083Z,29.10
2018-07-04T11:56:35.461Z,29.50
2018-07-04T12:01:31.323Z,29.60
2018-07-04T12:04:10.956Z,28.90
2018-07-04T12:06:50.800Z,28.70
2018-07-04T12:11:46.722Z,29.00
2018-07-04T12:14:14.314Z,29.30
2018-07-04T12:16:41.740Z,29.20
2018-07-04T12:19:09.122Z,29.20
2018-07-04T12:21:36.844Z,29.00
2018-07-04T12:24:04.273Z,29.10
2018-07-04T12:26:31.608Z,28.50
2018-07-04T12:28:58.971Z,28.90
2018-07-04T12:31:26.259Z,29.40
2018-07-04T12:33:53.567Z,29.50
2018-07-04T12:36:21.222Z,29.30
2018-07-04T12:38:48.597Z,29.60
2018-07-04T12:41:15.887Z,30.00
2018-07-04T12:43:43.295Z,30.20
2018-07-04T12:48:38.464Z,30.60
2018-07-04T12:51:06.154Z,29.70
2018-07-04T12:53:41.209Z,29.50
2018-07-04T12:56:21.074Z,29.90
2018-07-04T12:59:00.995Z,29.80
2018-07-04T13:01:41.153Z,29.90
2018-07-04T13:04:20.878Z,30.00
2018-07-04T13:07:01.300Z,30.10
2018-07-04T13:09:41.323Z,30.10
2018-07-04T13:12:21.089Z,30.00
2018-07-04T13:15:01.139Z,30.10
2018-07-04T13:17:41.152Z,30.10
2018-07-04T13:20:20.626Z,29.90
2018-07-04T13:23:00.849Z,30.10
2018-07-04T13:25:40.794Z,29.90
2018-07-04T13:30:54.327Z,29.90
2018-07-04T13:33:33.986Z,29.90
2018-07-04T13:36:13.997Z,29.80
2018-07-04T13:38:54.284Z,29.60
2018-07-04T13:41:34.365Z,29.60
2018-07-04T13:44:14.428Z,29.40
2018-07-04T13:46:54.711Z,29.20
2018-07-04T13:49:34.437Z,29.20
2018-07-04T13:52:14.199Z,29.10
2018-07-04T13:54:53.979Z,29.00
2018-07-04T13:57:33.792Z,29.00
2018-07-04T14:00:13.639Z,29.10
2018-07-04T14:02:53.398Z,29.00
2018-07-04T14:05:33.036Z,29.00
2018-07-04T14:08:14.617Z,28.90
2018-07-04T14:10:54.670Z,28.90
2018-07-04T14:13:34.676Z,28.80
2018-07-04T14:16:14.537Z,28.90
2018-07-04T14:18:54.306Z,28.90
2018-07-04T14:21:34.122Z,28.90
2018-07-04T14:24:14.090Z,28.90
2018-07-04T14:26:54.420Z,28.80
2018-07-04T14:29:34.328Z,28.80
2018-07-04T14:32:14.463Z,28.70
2018-07-04T14:34:57.683Z,28.50
2018-07-04T14:37:37.687Z,28.40
2018-07-04T14:40:17.545Z,28.30
2018-07-04T14:42:57.253Z,28.60
2018-07-04T14:45:37.173Z,28.50
2018-07-04T14:48:17.215Z,28.50
2018-07-04T14:53:31.222Z,28.50
2018-07-04T14:56:11.369Z,28.30
2018-07-04T14:58:51.259Z,28.40
2018-07-04T15:02:50.332Z,28.60
2018-07-04T15:05:30.261Z,28.50
2018-07-04T15:08:10.291Z,28.20
2018-07-04T15:10:50.074Z,28.10
2018-07-04T15:13:29.983Z,28.10
2018-07-04T15:16:09.785Z,28.20
2018-07-04T15:18:49.417Z,28.10
2018-07-04T15:21:29.571Z,28.20
2018-07-04T15:24:09.433Z,28.10
2018-07-04T15:26:49.023Z,28.10
2018-07-04T15:29:29.371Z,27.90
2018-07-04T15:32:09.583Z,27.90
2018-07-04T15:34:49.747Z,27.80
2018-07-04T15:37:30.230Z,27.90
2018-07-04T15:40:10.144Z,28.00
2018-07-04T15:48:53.353Z,28.10
2018-07-04T15:51:33.404Z,28.10
2018-07-04T15:54:13.380Z,28.10
2018-07-04T15:56:53.456Z,28.20
2018-07-04T15:59:33.661Z,28.20
2018-07-04T16:02:13.405Z,28.10
2018-07-04T16:04:53.691Z,27.90
2018-07-04T16:07:33.919Z,27.80
2018-07-04T16:10:14.170Z,27.80
2018-07-04T16:12:54.600Z,27.90
2018-07-04T16:15:34.863Z,28.00
2018-07-04T16:18:14.807Z,27.90
2018-07-04T16:23:46.939Z,27.80
2018-07-04T16:26:27.248Z,27.70
2018-07-04T16:29:12.046Z,27.70
2018-07-04T16:34:44.133Z,27.90
2018-07-04T16:37:25.470Z,27.90
2018-07-04T16:40:13.385Z,27.80
2018-07-04T16:42:53.677Z,27.70
2018-07-04T16:51:02.961Z,27.30
2018-07-04T16:53:53.060Z,27.30
2018-07-04T16:59:42.564Z,27.20
2018-07-04T17:09:52.851Z,27.10
